Time,TemperatureF,DewpointF,PressureIn,WindDirection,WindDirectionDegrees,WindSpeedMPH,WindSpeedGustMPH,Humidity,HourlyPrecipIn,Conditions,Clouds,dailyrainin,SolarRadiationWatts/m^2,SoftwareType,DateUTC
2013-01-10 00:02:00,35.0,31.0,-100.00,SSE,162,4.0,11.0,84,0.00,,,0.00,0.000000,,2013-01-10 06:02:00,
2013-01-10 00:11:00,35.0,31.0,-100.00,SSE,154,5.0,10.0,84,0.00,,,0.00,0.000000,,2013-01-10 06:11:00,
2013-01-10 00:32:00,35.0,31.0,-100.00,SSE,154,5.0,10.0,84,0.00,,,0.00,0.000000,,2013-01-10 06:32:00,
2013-01-10 00:42:00,35.0,31.0,-100.00,SSE,154,5.0,10.0,84,0.00,,,0.00,0.000000,,2013-01-10 06:42:00,
2013-01-10 00:52:00,35.0,31.0,-100.00,SSE,154,5.0,10.0,84,0.00,,,0.00,0.000000,,2013-01-10 06:52:00,
2013-01-10 01:02:00,35.0,31.0,-100.00,SSE,154,5.0,10.0,84,0.00,,,0.00,0.000000,,2013-01-10 07:02:00,
2013-01-10 01:11:00,34.0,30.0,-100.00,SSE,159,4.0,11.0,84,0.00,,,0.00,0.000000,,2013-01-10 07:11:00,
2013-01-10 01:42:00,34.0,30.0,-100.00,SSE,159,4.0,11.0,84,0.00,,,0.00,0.000000,,2013-01-10 07:42:00,
2013-01-10 01:52:00,34.0,30.0,-100.00,SSE,159,4.0,11.0,84,0.00,,,0.00,0.000000,,2013-01-10 07:52:00,
2013-01-10 02:02:00,34.0,30.0,-100.00,SSE,159,4.0,11.0,84,0.00,,,0.00,0.000000,,2013-01-10 08:02:00,
2013-01-10 02:11:00,32.0,29.0,-100.00,South,172,3.0,10.0,90,0.00,,,0.00,0.000000,,2013-01-10 08:11:00,
2013-01-10 02:33:00,32.0,29.0,-100.00,South,172,3.0,10.0,90,0.00,,,0.00,0.000000,,2013-01-10 08:33:00,
2013-01-10 02:42:00,32.0,29.0,-100.00,South,172,3.0,10.0,90,0.00,,,0.00,0.000000,,2013-01-10 08:42:00,
2013-01-10 02:53:00,32.0,29.0,-100.00,South,172,3.0,10.0,90,0.00,,,0.00,0.000000,,2013-01-10 08:53:00,
2013-01-10 03:02:00,32.0,29.0,-100.00,South,172,3.0,10.0,90,0.00,,,0.00,0.000000,,2013-01-10 09:02:00,
2013-01-10 03:11:00,32.0,29.0,-100.00,South,176,3.0,7.0,90,0.00,,,0.00,0.000000,,2013-01-10 09:11:00,
2013-01-10 03:43:00,32.0,29.0,-100.00,South,176,3.0,7.0,90,0.00,,,0.00,0.000000,,2013-01-10 09:43:00,
2013-01-10 03:52:00,32.0,29.0,-100.00,South,176,3.0,7.0,90,0.00,,,0.00,0.000000,,2013-01-10 09:52:00,
2013-01-10 04:03:00,32.0,29.0,-100.00,South,176,3.0,7.0,90,0.00,,,0.00,0.000000,,2013-01-10 10:03:00,
2013-01-10 04:11:00,32.0,29.0,-100.00,SSE,166,4.0,8.0,89,0.00,,,0.00,0.000000,,2013-01-10 10:11:00,
2013-01-10 04:33:00,32.0,29.0,-100.00,SSE,166,4.0,8.0,89,0.00,,,0.00,0.000000,,2013-01-10 10:33:00,
2013-01-10 04:42:00,32.0,29.0,-100.00,SSE,166,4.0,8.0,89,0.00,,,0.00,0.000000,,2013-01-10 10:42:00,
2013-01-10 04:52:00,32.0,29.0,-100.00,SSE,166,4.0,8.0,89,0.00,,,0.00,0.000000,,2013-01-10 10:52:00,
2013-01-10 05:02:00,32.0,29.0,-100.00,SSE,166,4.0,8.0,89,0.00,,,0.00,0.000000,,2013-01-10 11:02:00,
2013-01-10 05:11:00,33.0,30.0,-100.00,SSE,155,4.0,10.0,87,0.00,,,0.00,0.000000,,2013-01-10 11:11:00,
2013-01-10 05:43:00,33.0,30.0,-100.00,SSE,155,4.0,10.0,87,0.00,,,0.00,0.000000,,2013-01-10 11:43:00,
2013-01-10 05:53:00,33.0,30.0,-100.00,SSE,155,4.0,10.0,87,0.00,,,0.00,0.000000,,2013-01-10 11:53:00,
2013-01-10 06:03:00,33.0,30.0,-100.00,SSE,155,4.0,10.0,87,0.00,,,0.00,0.000000,,2013-01-10 12:03:00,
2013-01-10 08:11:00,37.0,26.0,-100.00,SE,142,7.0,12.0,64,-99.99,,,0.00,1.000000,,2013-01-10 14:11:00,
2013-01-10 08:33:00,37.0,26.0,-100.00,SE,142,7.0,12.0,64,-99.99,,,0.00,1.000000,,2013-01-10 14:33:00,
2013-01-10 08:43:00,37.0,26.0,-100.00,SE,142,7.0,12.0,64,-99.99,,,0.00,1.000000,,2013-01-10 14:43:00,
2013-01-10 08:53:00,37.0,26.0,-100.00,SE,142,7.0,12.0,64,-99.99,,,0.00,1.000000,,2013-01-10 14:53:00,
2013-01-10 09:03:00,37.0,26.0,-100.00,SE,142,7.0,12.0,64,-99.99,,,0.00,1.000000,,2013-01-10 15:03:00,
2013-01-10 09:11:00,38.0,25.0,-100.00,SSE,149,7.0,14.0,59,0.00,,,0.00,19.000000,,2013-01-10 15:11:00,
2013-01-10 09:33:00,38.0,25.0,-100.00,SSE,149,7.0,14.0,59,0.00,,,0.00,19.000000,,2013-01-10 15:33:00,
2013-01-10 09:43:00,38.0,25.0,-100.00,SSE,149,7.0,14.0,59,0.00,,,0.00,19.000000,,2013-01-10 15:43:00,
2013-01-10 09:53:00,38.0,25.0,-100.00,SSE,149,7.0,14.0,59,0.00,,,0.00,19.000000,,2013-01-10 15:53:00,
2013-01-10 10:02:00,38.0,25.0,-100.00,SSE,149,7.0,14.0,59,0.00,,,0.00,19.000000,,2013-01-10 16:02:00,
2013-01-10 10:11:00,39.0,25.0,-100.00,SSE,164,4.0,13.0,56,0.00,,,0.00,84.000000,,2013-01-10 16:11:00,
2013-01-10 10:43:00,39.0,25.0,-100.00,SSE,164,4.0,13.0,56,0.00,,,0.00,84.000000,,2013-01-10 16:43:00,
2013-01-10 10:53:00,39.0,25.0,-100.00,SSE,164,4.0,13.0,56,0.00,,,0.00,84.000000,,2013-01-10 16:53:00,
2013-01-10 11:03:00,39.0,25.0,-100.00,SSE,164,4.0,13.0,56,0.00,,,0.00,84.000000,,2013-01-10 17:03:00,
2013-01-10 11:11:00,41.0,23.0,-100.00,SSE,159,7.0,16.0,49,0.00,,,0.00,154.000000,,2013-01-10 17:11:00,
2013-01-10 11:43:00,41.0,23.0,-100.00,SSE,159,7.0,16.0,49,0.00,,,0.00,154.000000,,2013-01-10 17:43:00,
2013-01-10 11:53:00,41.0,23.0,-100.00,SSE,159,7.0,16.0,49,0.00,,,0.00,154.000000,,2013-01-10 17:53:00,
2013-01-10 12:03:00,41.0,23.0,-100.00,SSE,159,7.0,16.0,49,0.00,,,0.00,154.000000,,2013-01-10 18:03:00,
2013-01-10 12:11:00,39.0,28.0,-100.00,SSE,154,6.0,13.0,65,0.00,,,0.00,87.000000,,2013-01-10 18:11:00,
2013-01-10 12:43:00,39.0,28.0,-100.00,SSE,154,6.0,13.0,65,0.00,,,0.00,87.000000,,2013-01-10 18:43:00,
2013-01-10 12:53:00,39.0,28.0,-100.00,SSE,154,6.0,13.0,65,0.00,,,0.00,87.000000,,2013-01-10 18:53:00,
2013-01-10 13:03:00,39.0,28.0,-100.00,SSE,154,6.0,13.0,65,0.00,,,0.00,87.000000,,2013-01-10 19:03:00,
2013-01-10 13:11:00,39.0,31.0,-100.00,SSE,167,2.0,14.0,72,0.00,,,-99.99,57.000000,,2013-01-10 19:11:00,
2013-01-10 13:43:00,39.0,31.0,-100.00,SSE,167,2.0,14.0,72,0.00,,,-99.99,57.000000,,2013-01-10 19:43:00,
2013-01-10 13:53:00,39.0,31.0,-100.00,SSE,167,2.0,14.0,72,0.00,,,-99.99,57.000000,,2013-01-10 19:53:00,
2013-01-10 14:03:00,39.0,31.0,-100.00,SSE,167,2.0,14.0,72,0.00,,,-99.99,57.000000,,2013-01-10 20:03:00,
2013-01-10 14:11:00,38.0,30.0,-100.00,SSE,156,4.0,10.0,73,0.01,,,0.01,59.000000,,2013-01-10 20:11:00,
2013-01-10 14:33:00,38.0,30.0,-100.00,SSE,156,4.0,10.0,73,0.01,,,0.01,59.000000,,2013-01-10 20:33:00,
2013-01-10 14:43:00,38.0,30.0,-100.00,SSE,156,4.0,10.0,73,0.01,,,0.01,59.000000,,2013-01-10 20:43:00,
2013-01-10 14:53:00,38.0,30.0,-100.00,SSE,156,4.0,10.0,73,0.01,,,0.01,59.000000,,2013-01-10 20:53:00,
2013-01-10 15:03:00,38.0,30.0,-100.00,SSE,156,4.0,10.0,73,0.01,,,0.01,59.000000,,2013-01-10 21:03:00,
2013-01-10 15:11:00,32.0,-99.9,-100.00,SSE,151,6.0,12.0,0,0.00,,,0.01,54.000000,,2013-01-10 21:11:00,
2013-01-10 15:33:00,32.0,-99.9,-100.00,SSE,151,6.0,12.0,0,0.00,,,0.01,54.000000,,2013-01-10 21:33:00,
2013-01-10 15:44:00,32.0,-99.9,-100.00,SSE,151,6.0,12.0,0,0.00,,,0.01,54.000000,,2013-01-10 21:44:00,
2013-01-10 16:04:00,32.0,-99.9,-100.00,SSE,151,6.0,12.0,0,0.00,,,0.01,54.000000,,2013-01-10 22:04:00,
2013-01-10 16:11:00,32.0,-51.0,-100.00,SE,139,7.0,12.0,0,0.02,,,0.03,42.000000,,2013-01-10 22:11:00,
2013-01-10 16:44:00,32.0,-51.0,-100.00,SE,139,7.0,12.0,0,0.02,,,0.03,42.000000,,2013-01-10 22:44:00,
2013-01-10 17:02:00,32.0,-51.0,-100.00,SE,139,7.0,12.0,0,0.02,,,0.03,42.000000,,2013-01-10 23:02:00,
2013-01-10 17:11:00,32.0,-51.0,-100.00,SSE,164,4.0,14.0,0,0.00,,,0.03,22.000000,,2013-01-10 23:11:00,
2013-01-10 17:43:00,32.0,-51.0,-100.00,SSE,164,4.0,14.0,0,0.00,,,0.03,22.000000,,2013-01-10 23:43:00,
2013-01-10 17:53:00,32.0,-51.0,-100.00,SSE,164,4.0,14.0,0,0.00,,,0.03,22.000000,,2013-01-10 23:53:00,
2013-01-10 18:03:00,32.0,-51.0,-100.00,SSE,164,4.0,14.0,0,0.00,,,0.03,22.000000,,2013-01-11 00:03:00,
2013-01-10 18:11:00,32.0,-51.0,-100.00,South,176,3.0,10.0,0,0.00,,,0.03,0.000000,,2013-01-11 00:11:00,
2013-01-10 18:43:00,32.0,-51.0,-100.00,South,176,3.0,10.0,0,0.00,,,0.03,0.000000,,2013-01-11 00:43:00,
2013-01-10 18:53:00,32.0,-51.0,-100.00,South,176,3.0,10.0,0,0.00,,,0.03,0.000000,,2013-01-11 00:53:00,
2013-01-10 19:03:00,32.0,-51.0,-100.00,South,176,3.0,10.0,0,0.00,,,0.03,0.000000,,2013-01-11 01:03:00,
2013-01-10 19:11:00,32.0,-51.0,-100.00,SSE,165,3.0,6.0,0,0.00,,,0.03,0.000000,,2013-01-11 01:11:00,
2013-01-10 19:34:00,32.0,-51.0,-100.00,SSE,165,3.0,6.0,0,0.00,,,0.03,0.000000,,2013-01-11 01:34:00,
2013-01-10 19:43:00,32.0,-51.0,-100.00,SSE,165,3.0,6.0,0,0.00,,,0.03,0.000000,,2013-01-11 01:43:00,
2013-01-10 19:53:00,32.0,-51.0,-100.00,SSE,165,3.0,6.0,0,0.00,,,0.03,0.000000,,2013-01-11 01:53:00,
2013-01-10 20:03:00,32.0,-51.0,-100.00,SSE,165,3.0,6.0,0,0.00,,,0.03,0.000000,,2013-01-11 02:03:00,
2013-01-10 20:11:00,32.0,-51.0,-100.00,South,173,3.0,7.0,0,0.00,,,0.03,0.000000,,2013-01-11 02:11:00,
2013-01-10 20:44:00,32.0,-51.0,-100.00,South,173,3.0,7.0,0,0.00,,,0.03,0.000000,,2013-01-11 02:44:00,
2013-01-10 20:54:00,32.0,-51.0,-100.00,South,173,3.0,7.0,0,0.00,,,0.03,0.000000,,2013-01-11 02:54:00,
2013-01-10 21:02:00,32.0,-51.0,-100.00,South,173,3.0,7.0,0,0.00,,,0.03,0.000000,,2013-01-11 03:02:00,
2013-01-10 21:11:00,32.0,-51.0,-100.00,South,175,3.0,6.0,0,0.00,,,0.03,0.000000,,2013-01-11 03:11:00,
2013-01-10 21:33:00,32.0,-51.0,-100.00,South,175,3.0,6.0,0,0.00,,,0.03,0.000000,,2013-01-11 03:33:00,
2013-01-10 21:43:00,32.0,-51.0,-100.00,South,175,3.0,6.0,0,0.00,,,0.03,0.000000,,2013-01-11 03:43:00,
2013-01-10 21:53:00,32.0,-51.0,-100.00,South,175,3.0,6.0,0,0.00,,,0.03,0.000000,,2013-01-11 03:53:00,
2013-01-10 22:02:00,32.0,-51.0,-100.00,South,175,3.0,6.0,0,0.00,,,0.03,0.000000,,2013-01-11 04:02:00,
2013-01-10 22:11:00,32.0,-51.0,-100.00,South,170,3.0,8.0,0,0.00,,,0.03,0.000000,,2013-01-11 04:11:00,
2013-01-10 22:33:00,32.0,-51.0,-100.00,South,170,3.0,8.0,0,0.00,,,0.03,0.000000,,2013-01-11 04:33:00,
2013-01-10 22:43:00,32.0,-51.0,-100.00,South,170,3.0,8.0,0,0.00,,,0.03,0.000000,,2013-01-11 04:43:00,
2013-01-10 22:53:00,32.0,-51.0,-100.00,South,170,3.0,8.0,0,0.00,,,0.03,0.000000,,2013-01-11 04:53:00,
2013-01-10 23:03:00,32.0,-51.0,-100.00,South,170,3.0,8.0,0,0.00,,,0.03,0.000000,,2013-01-11 05:03:00,
2013-01-10 23:11:00,32.0,-51.0,-100.00,South,170,3.0,8.0,0,0.00,,,0.03,0.000000,,2013-01-11 05:11:00,
2013-01-10 23:33:00,32.0,-51.0,-100.00,South,170,3.0,8.0,0,0.00,,,0.03,0.000000,,2013-01-11 05:33:00,
2013-01-10 23:43:00,32.0,-51.0,-100.00,South,170,3.0,8.0,0,0.00,,,0.03,0.000000,,2013-01-11 05:43:00,
2013-01-10 23:53:00,32.0,-51.0,-100.00,South,170,3.0,8.0,0,0.00,,,0.03,0.000000,,2013-01-11 05:53:00,